Richmondale, Pennsylvania
Current Conditions -  °F | °C
As of 2:54 AM on Wednesday 26 Nov 2014 (Local Time) from KAVP Reporting Station
Clear Clear  
Wind Chill: 36°   Ceiling: Unl
Heat Index: 39°   Visibility: 10mi
Dew Point: 27°   Wind: 5mph
Humidity: 62%   Direction: 340°NNW
Pressure: 30.17"   Gusts: NA
Location:  41.6599°N, 75.4935°W
Report Text: KAVP 260754Z AUTO 34004KT 10SM CLR 04/M03 A3017 RMK AO2 SLP220 T00391028
Loading
Personal Weather Stations






























Interactive Weather Map New forecast layout! Learn more

10-Day Weather Forecast

Advertisements
Track Severe Weather on mobile